sensor_id;sensor_type;location;lat;lon;timestamp;P1;durP1;ratioP1;P2;durP2;ratioP2
72464;SDS011;60471;52.150;4.508;2024-01-30T00:02:20;19.20;;;8.32;;
72464;SDS011;60471;52.150;4.508;2024-01-30T00:04:46;18.23;;;8.57;;
72464;SDS011;60471;52.150;4.508;2024-01-30T00:07:12;19.02;;;8.43;;
72464;SDS011;60471;52.150;4.508;2024-01-30T00:09:38;21.15;;;9.55;;
72464;SDS011;60471;52.150;4.508;2024-01-30T00:12:05;19.45;;;8.98;;
72464;SDS011;60471;52.150;4.508;2024-01-30T00:14:32;20.52;;;9.98;;
72464;SDS011;60471;52.150;4.508;2024-01-30T00:16:58;20.70;;;10.52;;
72464;SDS011;60471;52.150;4.508;2024-01-30T00:19:25;23.10;;;9.75;;
72464;SDS011;60471;52.150;4.508;2024-01-30T00:21:51;21.77;;;10.13;;
72464;SDS011;60471;52.150;4.508;2024-01-30T00:24:17;20.60;;;10.20;;
72464;SDS011;60471;52.150;4.508;2024-01-30T00:26:43;20.00;;;8.40;;
72464;SDS011;60471;52.150;4.508;2024-01-30T00:29:09;19.40;;;9.45;;
72464;SDS011;60471;52.150;4.508;2024-01-30T00:31:36;19.80;;;9.70;;
72464;SDS011;60471;52.150;4.508;2024-01-30T00:34:02;18.85;;;8.68;;
72464;SDS011;60471;52.150;4.508;2024-01-30T00:36:28;21.30;;;8.05;;
72464;SDS011;60471;52.150;4.508;2024-01-30T00:38:56;19.63;;;8.73;;
72464;SDS011;60471;52.150;4.508;2024-01-30T00:41:22;16.67;;;8.02;;
72464;SDS011;60471;52.150;4.508;2024-01-30T00:43:48;17.73;;;8.07;;
72464;SDS011;60471;52.150;4.508;2024-01-30T00:46:14;17.63;;;7.90;;
72464;SDS011;60471;52.150;4.508;2024-01-30T00:48:40;16.20;;;7.65;;
72464;SDS011;60471;52.150;4.508;2024-01-30T00:51:06;17.70;;;7.63;;
72464;SDS011;60471;52.150;4.508;2024-01-30T00:53:33;23.05;;;8.93;;
72464;SDS011;60471;52.150;4.508;2024-01-30T00:55:59;21.20;;;7.82;;
72464;SDS011;60471;52.150;4.508;2024-01-30T00:58:25;20.30;;;8.35;;
72464;SDS011;60471;52.150;4.508;2024-01-30T01:00:51;15.98;;;7.80;;
72464;SDS011;60471;52.150;4.508;2024-01-30T01:03:18;17.20;;;8.15;;
72464;SDS011;60471;52.150;4.508;2024-01-30T01:05:44;17.38;;;8.50;;
72464;SDS011;60471;52.150;4.508;2024-01-30T01:08:10;21.33;;;9.07;;
72464;SDS011;60471;52.150;4.508;2024-01-30T01:10:36;17.52;;;7.32;;
72464;SDS011;60471;52.150;4.508;2024-01-30T01:13:02;17.13;;;8.52;;
72464;SDS011;60471;52.150;4.508;2024-01-30T01:15:29;15.43;;;8.75;;
72464;SDS011;60471;52.150;4.508;2024-01-30T01:17:55;23.00;;;9.98;;
72464;SDS011;60471;52.150;4.508;2024-01-30T01:20:21;19.35;;;8.30;;
72464;SDS011;60471;52.150;4.508;2024-01-30T01:22:47;18.95;;;7.28;;
72464;SDS011;60471;52.150;4.508;2024-01-30T01:25:14;15.88;;;7.22;;
72464;SDS011;60471;52.150;4.508;2024-01-30T01:27:40;17.42;;;7.70;;
72464;SDS011;60471;52.150;4.508;2024-01-30T01:30:08;17.38;;;7.93;;
72464;SDS011;60471;52.150;4.508;2024-01-30T01:32:37;16.77;;;8.57;;
72464;SDS011;60471;52.150;4.508;2024-01-30T01:35:04;17.50;;;7.78;;
72464;SDS011;60471;52.150;4.508;2024-01-30T01:37:33;18.98;;;7.85;;
72464;SDS011;60471;52.150;4.508;2024-01-30T01:39:59;16.35;;;8.18;;
72464;SDS011;60471;52.150;4.508;2024-01-30T01:42:25;19.45;;;7.60;;
72464;SDS011;60471;52.150;4.508;2024-01-30T01:44:52;18.17;;;8.23;;
72464;SDS011;60471;52.150;4.508;2024-01-30T01:47:18;17.13;;;7.45;;
72464;SDS011;60471;52.150;4.508;2024-01-30T01:49:44;17.15;;;7.72;;
72464;SDS011;60471;52.150;4.508;2024-01-30T01:52:10;18.20;;;8.80;;
72464;SDS011;60471;52.150;4.508;2024-01-30T01:54:37;17.48;;;7.65;;
72464;SDS011;60471;52.150;4.508;2024-01-30T01:57:03;14.75;;;7.30;;
72464;SDS011;60471;52.150;4.508;2024-01-30T01:59:30;16.65;;;8.07;;
72464;SDS011;60471;52.150;4.508;2024-01-30T02:01:56;18.80;;;7.85;;
72464;SDS011;60471;52.150;4.508;2024-01-30T02:04:23;16.40;;;7.68;;
72464;SDS011;60471;52.150;4.508;2024-01-30T02:06:49;18.75;;;8.45;;
72464;SDS011;60471;52.150;4.508;2024-01-30T02:09:15;17.35;;;7.53;;
72464;SDS011;60471;52.150;4.508;2024-01-30T02:11:42;18.70;;;7.82;;
72464;SDS011;60471;52.150;4.508;2024-01-30T02:14:08;14.82;;;7.80;;
72464;SDS011;60471;52.150;4.508;2024-01-30T02:16:34;16.30;;;8.23;;
72464;SDS011;60471;52.150;4.508;2024-01-30T02:19:00;18.52;;;7.50;;
72464;SDS011;60471;52.150;4.508;2024-01-30T02:21:27;16.83;;;8.93;;
72464;SDS011;60471;52.150;4.508;2024-01-30T02:23:53;15.02;;;7.40;;
72464;SDS011;60471;52.150;4.508;2024-01-30T02:26:21;17.23;;;7.22;;
72464;SDS011;60471;52.150;4.508;2024-01-30T02:28:47;17.55;;;8.60;;
72464;SDS011;60471;52.150;4.508;2024-01-30T02:31:13;18.40;;;8.48;;
72464;SDS011;60471;52.150;4.508;2024-01-30T02:33:40;13.85;;;6.85;;
72464;SDS011;60471;52.150;4.508;2024-01-30T02:36:06;17.38;;;7.78;;
72464;SDS011;60471;52.150;4.508;2024-01-30T02:38:33;17.33;;;9.23;;
72464;SDS011;60471;52.150;4.508;2024-01-30T02:40:59;19.25;;;8.45;;
72464;SDS011;60471;52.150;4.508;2024-01-30T02:43:25;14.98;;;7.63;;
72464;SDS011;60471;52.150;4.508;2024-01-30T02:45:51;17.27;;;8.10;;
72464;SDS011;60471;52.150;4.508;2024-01-30T02:48:17;16.90;;;7.68;;
72464;SDS011;60471;52.150;4.508;2024-01-30T02:50:44;17.42;;;7.72;;
72464;SDS011;60471;52.150;4.508;2024-01-30T02:53:10;15.60;;;7.00;;
72464;SDS011;60471;52.150;4.508;2024-01-30T02:55:36;20.50;;;8.48;;
72464;SDS011;60471;52.150;4.508;2024-01-30T02:58:02;19.00;;;7.78;;
72464;SDS011;60471;52.150;4.508;2024-01-30T03:00:29;19.95;;;8.10;;
72464;SDS011;60471;52.150;4.508;2024-01-30T03:02:55;15.85;;;7.65;;
72464;SDS011;60471;52.150;4.508;2024-01-30T03:05:21;20.40;;;7.95;;
72464;SDS011;60471;52.150;4.508;2024-01-30T03:07:47;16.80;;;7.53;;
72464;SDS011;60471;52.150;4.508;2024-01-30T03:10:14;17.55;;;8.25;;
72464;SDS011;60471;52.150;4.508;2024-01-30T03:12:40;15.88;;;7.85;;
72464;SDS011;60471;52.150;4.508;2024-01-30T03:15:06;19.77;;;8.73;;
72464;SDS011;60471;52.150;4.508;2024-01-30T03:17:32;17.08;;;7.70;;
72464;SDS011;60471;52.150;4.508;2024-01-30T03:19:59;18.52;;;8.77;;
72464;SDS011;60471;52.150;4.508;2024-01-30T03:22:25;19.30;;;7.75;;
72464;SDS011;60471;52.150;4.508;2024-01-30T03:24:51;19.35;;;8.77;;
72464;SDS011;60471;52.150;4.508;2024-01-30T03:27:17;16.05;;;8.02;;
72464;SDS011;60471;52.150;4.508;2024-01-30T03:29:43;19.48;;;8.85;;
72464;SDS011;60471;52.150;4.508;2024-01-30T03:32:10;18.83;;;8.70;;
72464;SDS011;60471;52.150;4.508;2024-01-30T03:34:36;18.35;;;8.73;;
72464;SDS011;60471;52.150;4.508;2024-01-30T03:37:02;17.60;;;7.60;;
72464;SDS011;60471;52.150;4.508;2024-01-30T03:39:28;18.05;;;7.97;;
72464;SDS011;60471;52.150;4.508;2024-01-30T03:41:56;15.55;;;7.47;;
72464;SDS011;60471;52.150;4.508;2024-01-30T03:44:22;17.42;;;8.13;;
72464;SDS011;60471;52.150;4.508;2024-01-30T03:46:48;16.85;;;7.80;;
72464;SDS011;60471;52.150;4.508;2024-01-30T03:49:15;15.48;;;7.30;;
72464;SDS011;60471;52.150;4.508;2024-01-30T03:51:41;22.42;;;8.98;;
72464;SDS011;60471;52.150;4.508;2024-01-30T03:54:07;15.45;;;7.78;;
72464;SDS011;60471;52.150;4.508;2024-01-30T03:56:33;16.33;;;7.78;;
72464;SDS011;60471;52.150;4.508;2024-01-30T03:59:00;17.60;;;8.02;;
72464;SDS011;60471;52.150;4.508;2024-01-30T04:01:28;18.73;;;7.70;;
72464;SDS011;60471;52.150;4.508;2024-01-30T04:03:54;15.18;;;7.63;;
72464;SDS011;60471;52.150;4.508;2024-01-30T04:06:20;16.85;;;7.30;;
72464;SDS011;60471;52.150;4.508;2024-01-30T04:08:47;17.15;;;7.38;;
72464;SDS011;60471;52.150;4.508;2024-01-30T04:11:13;15.77;;;7.45;;
72464;SDS011;60471;52.150;4.508;2024-01-30T04:13:39;15.55;;;8.32;;
72464;SDS011;60471;52.150;4.508;2024-01-30T04:16:05;15.82;;;7.80;;
72464;SDS011;60471;52.150;4.508;2024-01-30T04:18:32;17.40;;;7.47;;
72464;SDS011;60471;52.150;4.508;2024-01-30T04:20:59;15.63;;;7.63;;
72464;SDS011;60471;52.150;4.508;2024-01-30T04:23:26;18.35;;;8.13;;
72464;SDS011;60471;52.150;4.508;2024-01-30T04:25:52;16.05;;;7.63;;
72464;SDS011;60471;52.150;4.508;2024-01-30T04:28:18;16.27;;;7.45;;
72464;SDS011;60471;52.150;4.508;2024-01-30T04:30:44;17.85;;;8.10;;
72464;SDS011;60471;52.150;4.508;2024-01-30T04:33:10;16.60;;;7.65;;
72464;SDS011;60471;52.150;4.508;2024-01-30T04:35:37;15.50;;;7.97;;
72464;SDS011;60471;52.150;4.508;2024-01-30T04:38:03;14.15;;;7.55;;
72464;SDS011;60471;52.150;4.508;2024-01-30T04:40:29;17.15;;;8.13;;
72464;SDS011;60471;52.150;4.508;2024-01-30T04:42:56;19.45;;;9.00;;
72464;SDS011;60471;52.150;4.508;2024-01-30T04:45:22;15.85;;;7.88;;
72464;SDS011;60471;52.150;4.508;2024-01-30T04:47:48;15.20;;;7.43;;
72464;SDS011;60471;52.150;4.508;2024-01-30T04:50:14;17.27;;;8.25;;
72464;SDS011;60471;52.150;4.508;2024-01-30T04:52:40;16.15;;;8.65;;
72464;SDS011;60471;52.150;4.508;2024-01-30T04:55:07;15.95;;;7.68;;
72464;SDS011;60471;52.150;4.508;2024-01-30T04:57:33;18.05;;;8.65;;
72464;SDS011;60471;52.150;4.508;2024-01-30T04:59:59;17.27;;;8.13;;
72464;SDS011;60471;52.150;4.508;2024-01-30T05:02:26;17.13;;;7.10;;
72464;SDS011;60471;52.150;4.508;2024-01-30T05:04:53;19.80;;;8.30;;
72464;SDS011;60471;52.150;4.508;2024-01-30T05:07:19;17.00;;;8.15;;
72464;SDS011;60471;52.150;4.508;2024-01-30T05:09:45;17.98;;;7.90;;
72464;SDS011;60471;52.150;4.508;2024-01-30T05:12:11;17.90;;;7.63;;
72464;SDS011;60471;52.150;4.508;2024-01-30T05:14:37;19.30;;;7.57;;
72464;SDS011;60471;52.150;4.508;2024-01-30T05:17:04;16.10;;;7.43;;
72464;SDS011;60471;52.150;4.508;2024-01-30T05:19:30;16.15;;;8.90;;
72464;SDS011;60471;52.150;4.508;2024-01-30T05:21:56;17.83;;;8.02;;
72464;SDS011;60471;52.150;4.508;2024-01-30T05:24:22;15.63;;;7.70;;
72464;SDS011;60471;52.150;4.508;2024-01-30T05:26:48;17.63;;;8.10;;
72464;SDS011;60471;52.150;4.508;2024-01-30T05:29:16;17.73;;;7.40;;
72464;SDS011;60471;52.150;4.508;2024-01-30T05:31:43;17.35;;;7.85;;
72464;SDS011;60471;52.150;4.508;2024-01-30T05:34:09;18.67;;;7.97;;
72464;SDS011;60471;52.150;4.508;2024-01-30T05:36:35;15.55;;;7.32;;
72464;SDS011;60471;52.150;4.508;2024-01-30T05:39:01;16.83;;;8.02;;
72464;SDS011;60471;52.150;4.508;2024-01-30T05:41:28;18.67;;;7.95;;
72464;SDS011;60471;52.150;4.508;2024-01-30T05:43:54;18.10;;;8.07;;
72464;SDS011;60471;52.150;4.508;2024-01-30T05:46:20;16.60;;;8.15;;
72464;SDS011;60471;52.150;4.508;2024-01-30T05:48:47;20.55;;;8.43;;
72464;SDS011;60471;52.150;4.508;2024-01-30T05:51:13;16.67;;;8.50;;
72464;SDS011;60471;52.150;4.508;2024-01-30T05:53:39;19.42;;;9.18;;
72464;SDS011;60471;52.150;4.508;2024-01-30T05:56:06;17.38;;;7.95;;
72464;SDS011;60471;52.150;4.508;2024-01-30T05:58:32;17.75;;;7.38;;
72464;SDS011;60471;52.150;4.508;2024-01-30T06:00:58;19.60;;;8.20;;
72464;SDS011;60471;52.150;4.508;2024-01-30T06:03:25;16.70;;;6.85;;
72464;SDS011;60471;52.150;4.508;2024-01-30T06:05:51;15.98;;;7.72;;
72464;SDS011;60471;52.150;4.508;2024-01-30T06:08:17;17.30;;;7.80;;
72464;SDS011;60471;52.150;4.508;2024-01-30T06:10:44;18.65;;;8.20;;
72464;SDS011;60471;52.150;4.508;2024-01-30T06:13:10;18.65;;;7.97;;
72464;SDS011;60471;52.150;4.508;2024-01-30T06:15:36;16.80;;;7.40;;
72464;SDS011;60471;52.150;4.508;2024-01-30T06:18:02;18.02;;;7.45;;
72464;SDS011;60471;52.150;4.508;2024-01-30T06:20:29;15.73;;;7.07;;
72464;SDS011;60471;52.150;4.508;2024-01-30T06:22:55;16.88;;;7.43;;
72464;SDS011;60471;52.150;4.508;2024-01-30T06:25:21;18.80;;;7.68;;
72464;SDS011;60471;52.150;4.508;2024-01-30T06:27:47;14.73;;;7.15;;
72464;SDS011;60471;52.150;4.508;2024-01-30T06:30:14;16.60;;;7.28;;
72464;SDS011;60471;52.150;4.508;2024-01-30T06:32:41;19.25;;;7.25;;
72464;SDS011;60471;52.150;4.508;2024-01-30T06:35:07;17.15;;;7.20;;
72464;SDS011;60471;52.150;4.508;2024-01-30T06:37:34;13.95;;;6.55;;
72464;SDS011;60471;52.150;4.508;2024-01-30T06:40:00;15.30;;;6.45;;
72464;SDS011;60471;52.150;4.508;2024-01-30T06:42:26;18.90;;;7.10;;
72464;SDS011;60471;52.150;4.508;2024-01-30T06:44:53;19.02;;;7.00;;
72464;SDS011;60471;52.150;4.508;2024-01-30T06:47:19;18.13;;;7.53;;
72464;SDS011;60471;52.150;4.508;2024-01-30T06:49:45;17.63;;;7.93;;
72464;SDS011;60471;52.150;4.508;2024-01-30T06:52:11;16.10;;;7.50;;
72464;SDS011;60471;52.150;4.508;2024-01-30T06:54:37;15.38;;;7.55;;
72464;SDS011;60471;52.150;4.508;2024-01-30T06:57:05;16.70;;;6.97;;
72464;SDS011;60471;52.150;4.508;2024-01-30T06:59:37;19.88;;;7.72;;
72464;SDS011;60471;52.150;4.508;2024-01-30T07:02:11;20.27;;;7.53;;
72464;SDS011;60471;52.150;4.508;2024-01-30T07:04:38;16.55;;;7.13;;
72464;SDS011;60471;52.150;4.508;2024-01-30T07:07:05;21.60;;;7.57;;
72464;SDS011;60471;52.150;4.508;2024-01-30T07:09:31;22.77;;;7.95;;
72464;SDS011;60471;52.150;4.508;2024-01-30T07:11:57;17.90;;;7.85;;
72464;SDS011;60471;52.150;4.508;2024-01-30T07:14:24;18.17;;;8.25;;
72464;SDS011;60471;52.150;4.508;2024-01-30T07:16:51;14.95;;;7.30;;
72464;SDS011;60471;52.150;4.508;2024-01-30T07:19:17;17.13;;;7.53;;
72464;SDS011;60471;52.150;4.508;2024-01-30T07:21:43;16.50;;;7.38;;
72464;SDS011;60471;52.150;4.508;2024-01-30T07:24:10;19.92;;;8.50;;
72464;SDS011;60471;52.150;4.508;2024-01-30T07:26:36;15.18;;;7.95;;
72464;SDS011;60471;52.150;4.508;2024-01-30T07:29:02;17.08;;;7.32;;
72464;SDS011;60471;52.150;4.508;2024-01-30T07:31:29;20.23;;;7.90;;
72464;SDS011;60471;52.150;4.508;2024-01-30T07:33:55;19.65;;;7.93;;
72464;SDS011;60471;52.150;4.508;2024-01-30T07:36:21;18.70;;;7.70;;
72464;SDS011;60471;52.150;4.508;2024-01-30T07:38:47;20.33;;;8.23;;
72464;SDS011;60471;52.150;4.508;2024-01-30T07:41:13;19.10;;;8.60;;
72464;SDS011;60471;52.150;4.508;2024-01-30T07:43:40;21.13;;;9.95;;
72464;SDS011;60471;52.150;4.508;2024-01-30T07:46:06;23.42;;;9.23;;
72464;SDS011;60471;52.150;4.508;2024-01-30T07:48:33;16.48;;;7.25;;
72464;SDS011;60471;52.150;4.508;2024-01-30T07:51:00;15.90;;;6.35;;
72464;SDS011;60471;52.150;4.508;2024-01-30T07:53:26;18.17;;;6.45;;
72464;SDS011;60471;52.150;4.508;2024-01-30T07:55:52;15.38;;;6.63;;
72464;SDS011;60471;52.150;4.508;2024-01-30T07:58:18;16.17;;;7.28;;
72464;SDS011;60471;52.150;4.508;2024-01-30T08:00:45;26.20;;;8.43;;
72464;SDS011;60471;52.150;4.508;2024-01-30T08:03:11;17.75;;;8.55;;
72464;SDS011;60471;52.150;4.508;2024-01-30T08:05:38;23.52;;;7.22;;
72464;SDS011;60471;52.150;4.508;2024-01-30T08:08:05;17.92;;;8.52;;
72464;SDS011;60471;52.150;4.508;2024-01-30T08:10:31;19.38;;;8.90;;
72464;SDS011;60471;52.150;4.508;2024-01-30T08:12:57;13.32;;;6.53;;
72464;SDS011;60471;52.150;4.508;2024-01-30T08:15:23;19.88;;;7.75;;
72464;SDS011;60471;52.150;4.508;2024-01-30T08:17:50;15.05;;;7.38;;
72464;SDS011;60471;52.150;4.508;2024-01-30T08:20:21;21.43;;;8.03;;
72464;SDS011;60471;52.150;4.508;2024-01-30T08:22:47;19.05;;;7.78;;
72464;SDS011;60471;52.150;4.508;2024-01-30T08:25:13;19.55;;;7.07;;
72464;SDS011;60471;52.150;4.508;2024-01-30T08:27:40;18.08;;;8.55;;
72464;SDS011;60471;52.150;4.508;2024-01-30T08:30:06;22.70;;;8.07;;
72464;SDS011;60471;52.150;4.508;2024-01-30T08:32:33;16.80;;;7.90;;
72464;SDS011;60471;52.150;4.508;2024-01-30T08:35:00;21.40;;;10.05;;
72464;SDS011;60471;52.150;4.508;2024-01-30T08:37:29;22.77;;;9.57;;
72464;SDS011;60471;52.150;4.508;2024-01-30T08:39:55;18.42;;;9.35;;
72464;SDS011;60471;52.150;4.508;2024-01-30T08:42:22;20.52;;;8.70;;
72464;SDS011;60471;52.150;4.508;2024-01-30T08:44:49;18.58;;;8.75;;
72464;SDS011;60471;52.150;4.508;2024-01-30T08:47:17;20.73;;;8.88;;
72464;SDS011;60471;52.150;4.508;2024-01-30T08:49:44;16.60;;;7.95;;
72464;SDS011;60471;52.150;4.508;2024-01-30T08:52:10;22.13;;;9.43;;
72464;SDS011;60471;52.150;4.508;2024-01-30T08:54:37;21.15;;;8.30;;
72464;SDS011;60471;52.150;4.508;2024-01-30T08:57:03;23.30;;;9.75;;
72464;SDS011;60471;52.150;4.508;2024-01-30T08:59:30;16.17;;;8.13;;
72464;SDS011;60471;52.150;4.508;2024-01-30T09:01:56;19.08;;;8.05;;
72464;SDS011;60471;52.150;4.508;2024-01-30T09:04:24;21.48;;;8.65;;
72464;SDS011;60471;52.150;4.508;2024-01-30T09:06:51;20.98;;;8.25;;
72464;SDS011;60471;52.150;4.508;2024-01-30T09:09:17;18.35;;;7.70;;
72464;SDS011;60471;52.150;4.508;2024-01-30T09:11:43;21.27;;;9.25;;
72464;SDS011;60471;52.150;4.508;2024-01-30T09:14:10;23.15;;;10.48;;
72464;SDS011;60471;52.150;4.508;2024-01-30T09:16:36;17.40;;;9.43;;
72464;SDS011;60471;52.150;4.508;2024-01-30T09:19:02;18.20;;;9.73;;
72464;SDS011;60471;52.150;4.508;2024-01-30T09:21:28;21.02;;;9.65;;
72464;SDS011;60471;52.150;4.508;2024-01-30T09:24:01;24.83;;;9.35;;
72464;SDS011;60471;52.150;4.508;2024-01-30T09:26:31;36.40;;;10.43;;
72464;SDS011;60471;52.150;4.508;2024-01-30T09:28:57;18.75;;;6.43;;
72464;SDS011;60471;52.150;4.508;2024-01-30T09:31:23;20.67;;;8.65;;
72464;SDS011;60471;52.150;4.508;2024-01-30T09:33:50;18.38;;;6.07;;
72464;SDS011;60471;52.150;4.508;2024-01-30T09:36:17;15.93;;;4.35;;
72464;SDS011;60471;52.150;4.508;2024-01-30T09:38:45;20.40;;;4.93;;
72464;SDS011;60471;52.150;4.508;2024-01-30T09:41:11;17.20;;;3.63;;
72464;SDS011;60471;52.150;4.508;2024-01-30T09:43:38;16.67;;;5.53;;
72464;SDS011;60471;52.150;4.508;2024-01-30T09:46:10;15.20;;;3.13;;
72464;SDS011;60471;52.150;4.508;2024-01-30T09:48:40;10.15;;;2.75;;
72464;SDS011;60471;52.150;4.508;2024-01-30T09:51:09;18.60;;;3.33;;
72464;SDS011;60471;52.150;4.508;2024-01-30T09:53:36;16.10;;;2.58;;
72464;SDS011;60471;52.150;4.508;2024-01-30T09:56:03;9.43;;;2.25;;
72464;SDS011;60471;52.150;4.508;2024-01-30T09:58:31;10.07;;;2.40;;
72464;SDS011;60471;52.150;4.508;2024-01-30T10:00:57;8.50;;;2.35;;
72464;SDS011;60471;52.150;4.508;2024-01-30T10:03:23;13.93;;;2.40;;
72464;SDS011;60471;52.150;4.508;2024-01-30T10:05:51;13.85;;;2.28;;
72464;SDS011;60471;52.150;4.508;2024-01-30T10:08:18;12.20;;;1.50;;
72464;SDS011;60471;52.150;4.508;2024-01-30T10:10:46;5.57;;;1.30;;
72464;SDS011;60471;52.150;4.508;2024-01-30T10:13:13;8.40;;;1.35;;
72464;SDS011;60471;52.150;4.508;2024-01-30T10:15:39;5.85;;;1.23;;
72464;SDS011;60471;52.150;4.508;2024-01-30T10:18:06;7.15;;;1.17;;
72464;SDS011;60471;52.150;4.508;2024-01-30T10:20:32;11.00;;;1.50;;
72464;SDS011;60471;52.150;4.508;2024-01-30T10:22:59;9.25;;;1.40;;
72464;SDS011;60471;52.150;4.508;2024-01-30T10:25:26;10.48;;;1.58;;
72464;SDS011;60471;52.150;4.508;2024-01-30T10:27:53;5.70;;;1.15;;
72464;SDS011;60471;52.150;4.508;2024-01-30T10:30:22;5.90;;;1.23;;
72464;SDS011;60471;52.150;4.508;2024-01-30T10:32:48;9.38;;;1.50;;
72464;SDS011;60471;52.150;4.508;2024-01-30T10:35:15;7.15;;;1.42;;
72464;SDS011;60471;52.150;4.508;2024-01-30T10:37:43;10.35;;;1.25;;
72464;SDS011;60471;52.150;4.508;2024-01-30T10:40:13;11.85;;;1.58;;
72464;SDS011;60471;52.150;4.508;2024-01-30T10:42:42;9.75;;;1.42;;
72464;SDS011;60471;52.150;4.508;2024-01-30T10:45:12;2.88;;;1.02;;
72464;SDS011;60471;52.150;4.508;2024-01-30T10:47:43;6.80;;;1.23;;
72464;SDS011;60471;52.150;4.508;2024-01-30T10:50:15;7.53;;;1.13;;
72464;SDS011;60471;52.150;4.508;2024-01-30T10:52:42;3.92;;;1.20;;
72464;SDS011;60471;52.150;4.508;2024-01-30T10:55:09;10.43;;;1.50;;
72464;SDS011;60471;52.150;4.508;2024-01-30T10:57:36;3.67;;;1.13;;
72464;SDS011;60471;52.150;4.508;2024-01-30T11:00:04;6.80;;;1.10;;
72464;SDS011;60471;52.150;4.508;2024-01-30T11:02:38;13.25;;;1.65;;
72464;SDS011;60471;52.150;4.508;2024-01-30T11:05:08;12.52;;;1.60;;
72464;SDS011;60471;52.150;4.508;2024-01-30T11:07:35;8.05;;;1.50;;
72464;SDS011;60471;52.150;4.508;2024-01-30T11:10:03;14.27;;;1.83;;
72464;SDS011;60471;52.150;4.508;2024-01-30T11:12:30;12.40;;;2.03;;
72464;SDS011;60471;52.150;4.508;2024-01-30T11:15:04;8.60;;;2.13;;
72464;SDS011;60471;52.150;4.508;2024-01-30T11:22:57;7.53;;;1.88;;
72464;SDS011;60471;52.150;4.508;2024-01-30T11:25:24;14.85;;;2.47;;
72464;SDS011;60471;52.150;4.508;2024-01-30T11:27:52;10.88;;;2.28;;
72464;SDS011;60471;52.150;4.508;2024-01-30T11:32:58;10.60;;;2.38;;
72464;SDS011;60471;52.150;4.508;2024-01-30T11:35:32;12.02;;;2.10;;
72464;SDS011;60471;52.150;4.508;2024-01-30T11:38:01;7.53;;;1.98;;
72464;SDS011;60471;52.150;4.508;2024-01-30T11:40:30;10.63;;;1.63;;
72464;SDS011;60471;52.150;4.508;2024-01-30T11:42:58;8.45;;;1.80;;
72464;SDS011;60471;52.150;4.508;2024-01-30T11:45:26;12.88;;;1.67;;
72464;SDS011;60471;52.150;4.508;2024-01-30T11:47:53;8.15;;;1.52;;
72464;SDS011;60471;52.150;4.508;2024-01-30T11:50:21;9.43;;;1.92;;
72464;SDS011;60471;52.150;4.508;2024-01-30T11:52:48;11.35;;;2.28;;
72464;SDS011;60471;52.150;4.508;2024-01-30T11:55:14;14.43;;;2.55;;
72464;SDS011;60471;52.150;4.508;2024-01-30T11:57:41;8.77;;;1.88;;
72464;SDS011;60471;52.150;4.508;2024-01-30T12:00:14;13.95;;;2.20;;
72464;SDS011;60471;52.150;4.508;2024-01-30T12:02:42;11.70;;;1.55;;
72464;SDS011;60471;52.150;4.508;2024-01-30T12:05:09;12.05;;;2.70;;
72464;SDS011;60471;52.150;4.508;2024-01-30T12:07:36;12.32;;;2.38;;
72464;SDS011;60471;52.150;4.508;2024-01-30T12:10:02;12.98;;;2.10;;
72464;SDS011;60471;52.150;4.508;2024-01-30T12:12:29;15.38;;;2.88;;
72464;SDS011;60471;52.150;4.508;2024-01-30T12:14:55;14.18;;;2.63;;
72464;SDS011;60471;52.150;4.508;2024-01-30T12:17:29;12.45;;;2.38;;
72464;SDS011;60471;52.150;4.508;2024-01-30T12:20:03;14.93;;;2.45;;
72464;SDS011;60471;52.150;4.508;2024-01-30T12:22:33;14.85;;;2.15;;
72464;SDS011;60471;52.150;4.508;2024-01-30T12:25:04;14.45;;;2.50;;
72464;SDS011;60471;52.150;4.508;2024-01-30T12:27:34;22.15;;;2.95;;
72464;SDS011;60471;52.150;4.508;2024-01-30T12:30:08;14.85;;;3.22;;
72464;SDS011;60471;52.150;4.508;2024-01-30T12:32:37;18.65;;;3.42;;
72464;SDS011;60471;52.150;4.508;2024-01-30T12:35:07;8.77;;;1.88;;
72464;SDS011;60471;52.150;4.508;2024-01-30T12:37:36;16.08;;;2.15;;
72464;SDS011;60471;52.150;4.508;2024-01-30T12:40:03;9.80;;;1.75;;
72464;SDS011;60471;52.150;4.508;2024-01-30T12:42:30;18.13;;;2.40;;
72464;SDS011;60471;52.150;4.508;2024-01-30T12:44:59;22.15;;;3.63;;
72464;SDS011;60471;52.150;4.508;2024-01-30T12:47:27;17.02;;;2.65;;
72464;SDS011;60471;52.150;4.508;2024-01-30T12:49:53;16.23;;;2.72;;
72464;SDS011;60471;52.150;4.508;2024-01-30T12:52:20;14.32;;;3.08;;
72464;SDS011;60471;52.150;4.508;2024-01-30T12:54:48;11.02;;;2.78;;
72464;SDS011;60471;52.150;4.508;2024-01-30T12:57:15;10.10;;;2.40;;
72464;SDS011;60471;52.150;4.508;2024-01-30T12:59:43;12.23;;;2.90;;
72464;SDS011;60471;52.150;4.508;2024-01-30T13:02:13;11.27;;;2.80;;
72464;SDS011;60471;52.150;4.508;2024-01-30T13:04:41;8.48;;;2.83;;
72464;SDS011;60471;52.150;4.508;2024-01-30T13:07:08;9.75;;;2.20;;
72464;SDS011;60471;52.150;4.508;2024-01-30T13:09:34;13.85;;;3.63;;
72464;SDS011;60471;52.150;4.508;2024-01-30T13:12:01;10.73;;;2.75;;
72464;SDS011;60471;52.150;4.508;2024-01-30T13:14:27;13.52;;;3.42;;
72464;SDS011;60471;52.150;4.508;2024-01-30T13:16:53;8.30;;;2.55;;
72464;SDS011;60471;52.150;4.508;2024-01-30T13:19:19;12.82;;;3.30;;
72464;SDS011;60471;52.150;4.508;2024-01-30T13:21:46;11.02;;;2.72;;
72464;SDS011;60471;52.150;4.508;2024-01-30T13:24:13;14.48;;;3.25;;
72464;SDS011;60471;52.150;4.508;2024-01-30T13:26:40;13.43;;;3.70;;
72464;SDS011;60471;52.150;4.508;2024-01-30T13:29:09;12.43;;;2.72;;
72464;SDS011;60471;52.150;4.508;2024-01-30T13:31:35;14.50;;;3.47;;
72464;SDS011;60471;52.150;4.508;2024-01-30T13:34:02;13.15;;;3.60;;
72464;SDS011;60471;52.150;4.508;2024-01-30T13:36:28;13.30;;;3.25;;
72464;SDS011;60471;52.150;4.508;2024-01-30T13:38:54;9.80;;;2.70;;
72464;SDS011;60471;52.150;4.508;2024-01-30T13:41:21;17.13;;;3.38;;
72464;SDS011;60471;52.150;4.508;2024-01-30T13:43:48;8.32;;;2.90;;
72464;SDS011;60471;52.150;4.508;2024-01-30T13:46:14;14.35;;;3.85;;
72464;SDS011;60471;52.150;4.508;2024-01-30T13:48:41;18.35;;;3.05;;
72464;SDS011;60471;52.150;4.508;2024-01-30T13:51:07;9.60;;;2.88;;
72464;SDS011;60471;52.150;4.508;2024-01-30T13:53:33;15.18;;;3.33;;
72464;SDS011;60471;52.150;4.508;2024-01-30T13:55:59;18.25;;;3.30;;
72464;SDS011;60471;52.150;4.508;2024-01-30T13:58:26;15.35;;;3.80;;
72464;SDS011;60471;52.150;4.508;2024-01-30T14:00:53;20.48;;;5.53;;
72464;SDS011;60471;52.150;4.508;2024-01-30T14:03:19;14.85;;;3.70;;
72464;SDS011;60471;52.150;4.508;2024-01-30T14:05:45;10.60;;;3.20;;
72464;SDS011;60471;52.150;4.508;2024-01-30T14:08:12;15.75;;;2.92;;
72464;SDS011;60471;52.150;4.508;2024-01-30T14:10:38;10.50;;;3.50;;
72464;SDS011;60471;52.150;4.508;2024-01-30T14:13:04;9.55;;;2.97;;
72464;SDS011;60471;52.150;4.508;2024-01-30T14:15:30;20.35;;;4.25;;
72464;SDS011;60471;52.150;4.508;2024-01-30T14:17:56;12.75;;;3.58;;
72464;SDS011;60471;52.150;4.508;2024-01-30T14:20:23;11.60;;;3.53;;
72464;SDS011;60471;52.150;4.508;2024-01-30T14:22:49;11.40;;;3.33;;
72464;SDS011;60471;52.150;4.508;2024-01-30T14:25:15;10.73;;;2.97;;
72464;SDS011;60471;52.150;4.508;2024-01-30T14:27:42;9.13;;;2.85;;
72464;SDS011;60471;52.150;4.508;2024-01-30T14:30:11;7.60;;;2.42;;
72464;SDS011;60471;52.150;4.508;2024-01-30T14:32:38;13.13;;;3.85;;
72464;SDS011;60471;52.150;4.508;2024-01-30T14:35:06;11.23;;;3.47;;
72464;SDS011;60471;52.150;4.508;2024-01-30T14:37:32;10.63;;;3.60;;
72464;SDS011;60471;52.150;4.508;2024-01-30T14:39:58;14.90;;;3.60;;
72464;SDS011;60471;52.150;4.508;2024-01-30T14:42:25;11.43;;;4.05;;